Time;durP1;ratioP1;P1;durP2;ratioP2;P2;SDS_P1;SDS_P2;PMS_P1;PMS_P2;Temp;Humidity;BMP_temperature;BMP_pressure;BME280_temperature;BME280_humidity;BME280_pressure;Samples;Min_cycle;Max_cycle;Signal;HPM_P1;HPM_P2
2023/06/15 00:01:24;;;;;;;;;;;;;;;;;;5072289;28;19932;-82
2023/06/15 00:03:52;;;;;;;;;;;;;;;;;;5075110;28;19924;-83
2023/06/15 00:06:20;;;;;;;;;;;;;;;;;;5068342;28;19924;-81
2023/06/15 00:08:47;;;;;;;;;;;;;;;;;;5074708;28;19932;-82
2023/06/15 00:11:15;;;;;;;;;;;;;;;;;;5071461;28;19931;-81
2023/06/15 00:13:42;;;;;;;;;;;;;;;;;;5069313;28;19925;-82
2023/06/15 00:16:18;;;;;;;;;;;;;;;;;;5061357;28;19932;-82
2023/06/15 00:18:54;;;;;;;;;;;;;;;;;;5068749;28;19948;-82
2023/06/15 00:21:22;;;;;;;;;;;;;;;;;;5073783;28;19924;-82
2023/06/15 00:23:50;;;;;;;;;;;;;;;;;;5065820;28;20536;-82
2023/06/15 00:26:22;;;;;;;;;;;;;;;;;;5069946;28;19932;-80
2023/06/15 00:28:50;;;;;;;;;;;;;;;;;;5054894;28;20382;-80
2023/06/15 00:31:17;;;;;;;;;;;;;;;;;;5071670;28;19924;-82
2023/06/15 00:33:45;;;;;;;;;;;;;;;;;;5066545;28;19947;-83
2023/06/15 00:36:12;;;;;;;;;;;;;;;;;;5073408;28;19925;-81
2023/06/15 00:38:40;;;;;;;;;;;;;;;;;;5075738;28;19931;-81
2023/06/15 00:41:13;;;;;;;;;;;;;;;;;;5067299;28;19924;-81
2023/06/15 00:43:41;;;;;;;;;;;;;;;;;;5070028;28;19924;-82
2023/06/15 00:46:09;;;;;;;;;;;;;;;;;;5065626;28;19925;-81
2023/06/15 00:48:37;;;;;;;;;;;;;;;;;;5070586;28;19933;-82
2023/06/15 00:51:04;;;;;;;;;;;;;;;;;;5074130;28;19952;-81
2023/06/15 00:53:32;;;;;;;;;;;;;;;;;;5081470;28;19929;-83
2023/06/15 00:55:59;;;;;;;;;;;;;;;;;;5065088;28;20300;-83
2023/06/15 00:58:27;;;;;;;;;;;;;;;;;;5068737;28;20396;-81
2023/06/15 01:00:55;;;;;;;;;;;;;;;;;;5067623;28;19924;-82
2023/06/15 01:03:22;;;;;;;;;;;;;;;;;;5058275;28;19936;-83
2023/06/15 01:05:52;;;;;;;;;;;;;;;;;;5064205;28;19932;-82
2023/06/15 01:08:20;;;;;;;;;;;;;;;;;;5071012;28;19947;-82
2023/06/15 01:10:47;;;;;;;;;;;;;;;;;;5071503;28;19924;-81
2023/06/15 01:13:20;;;;;;;;;;;;;;;;;;5068226;28;19925;-81
2023/06/15 01:15:53;;;;;;;;;;;;;;;;;;5073524;28;19929;-82
2023/06/15 01:18:21;;;;;;;;;;;;;;;;;;5062760;28;20289;-82
2023/06/15 01:20:49;;;;;;;;;;;;;;;;;;5065408;28;20377;-81
2023/06/15 01:23:18;;;;;;;;;;;;;;;;;;5060566;28;19932;-80
2023/06/15 01:25:48;;;;;;;;;;;;;;;;;;5061454;28;20395;-81
2023/06/15 01:28:21;;;;;;;;;;;;;;;;;;5069318;28;20401;-81
2023/06/15 01:30:49;;;;;;;;;;;;;;;;;;5053863;28;19925;-81
2023/06/15 01:33:16;;;;;;;;;;;;;;;;;;5057133;28;19929;-82
2023/06/15 01:35:44;;;;;;;;;;;;;;;;;;5063305;28;20534;-82
2023/06/15 01:38:11;;;;;;;;;;;;;;;;;;5071044;28;19925;-81
2023/06/15 01:40:39;;;;;;;;;;;;;;;;;;5071070;28;19955;-81
2023/06/15 01:43:06;;;;;;;;;;;;;;;;;;5072326;28;19924;-85
2023/06/15 01:45:34;;;;;;;;;;;;;;;;;;5062238;28;19932;-83
2023/06/15 01:48:01;;;;;;;;;;;;;;;;;;5052857;28;20492;-80
2023/06/15 01:50:34;;;;;;;;;;;;;;;;;;5057896;28;19925;-80
2023/06/15 01:53:02;;;;;;;;;;;;;;;;;;5079365;28;20483;-81
2023/06/15 01:55:29;;;;;;;;;;;;;;;;;;5053700;28;19932;-81
2023/06/15 01:57:57;;;;;;;;;;;;;;;;;;5065522;28;20296;-81
2023/06/15 02:00:25;;;;;;;;;;;;;;;;;;5072899;28;19925;-82
2023/06/15 02:02:57;;;;;;;;;;;;;;;;;;5069797;28;19931;-80
2023/06/15 02:05:32;;;;;;;;;;;;;;;;;;5066329;28;20389;-83
2023/06/15 02:07:59;;;;;;;;;;;;;;;;;;5067847;28;19924;-81
2023/06/15 02:10:28;;;;;;;;;;;;;;;;;;5064684;28;19924;-81
2023/06/15 02:12:55;;;;;;;;;;;;;;;;;;5070699;28;20296;-82
2023/06/15 02:15:23;;;;;;;;;;;;;;;;;;5065855;28;19928;-81
2023/06/15 02:17:58;;;;;;;;;;;;;;;;;;5062792;28;19940;-81
2023/06/15 02:20:26;;;;;;;;;;;;;;;;;;5064637;28;19939;-80
2023/06/15 02:22:57;;;;;;;;;;;;;;;;;;5062253;28;19935;-82
2023/06/15 02:25:29;;;;;;;;;;;;;;;;;;5057444;28;19924;-82
2023/06/15 02:27:57;;;;;;;;;;;;;;;;;;5073150;28;19924;-80
2023/06/15 02:30:25;;;;;;;;;;;;;;;;;;5070076;28;20388;-81
2023/06/15 02:32:53;;;;;;;;;;;;;;;;;;5064137;28;19932;-81
2023/06/15 02:35:21;;;;;;;;;;;;;;;;;;5058303;28;19925;-80
2023/06/15 02:37:48;;;;;;;;;;;;;;;;;;5079060;28;19924;-82
2023/06/15 02:40:16;;;;;;;;;;;;;;;;;;5060939;28;19925;-81
2023/06/15 02:42:43;;;;;;;;;;;;;;;;;;5056555;28;19947;-80
2023/06/15 02:45:12;;;;;;;;;;;;;;;;;;5063658;28;20381;-81
2023/06/15 02:47:42;;;;;;;;;;;;;;;;;;5060125;28;19931;-81
2023/06/15 02:50:09;;;;;;;;;;;;;;;;;;5061553;28;19924;-82
2023/06/15 02:52:45;;;;;;;;;;;;;;;;;;5056391;28;19932;-81
2023/06/15 02:55:17;;;;;;;;;;;;;;;;;;5063441;28;20297;-82
2023/06/15 02:57:45;;;;;;;;;;;;;;;;;;5065669;28;19931;-81
2023/06/15 03:00:48;;;;;;;;;;;;;;;;;;5067775;28;19931;-81
2023/06/15 03:03:27;;;;;;;;;;;;;;;;;;5056440;28;19936;-82
2023/06/15 03:06:03;;;;;;;;;;;;;;;;;;5053706;28;19931;-81
2023/06/15 03:08:33;;;;;;;;;;;;;;;;;;5058619;28;19929;-82
2023/06/15 03:11:13;;;;;;;;;;;;;;;;;;5071244;28;19935;-83
2023/06/15 03:13:41;;;;;;;;;;;;;;;;;;5070232;28;19925;-81
2023/06/15 03:16:15;;;;;;;;;;;;;;;;;;5064007;28;19925;-81
2023/06/15 03:18:45;;;;;;;;;;;;;;;;;;5084699;28;19932;-80
2023/06/15 03:21:14;;;;;;;;;;;;;;;;;;5058294;28;19932;-81
2023/06/15 03:23:42;;;;;;;;;;;;;;;;;;5069882;28;19995;-80
2023/06/15 03:26:16;;;;;;;;;;;;;;;;;;5064246;28;19929;-81
2023/06/15 03:28:44;;;;;;;;;;;;;;;;;;5065932;28;20527;-81
2023/06/15 03:31:17;;;;;;;;;;;;;;;;;;5070895;28;19939;-80
2023/06/15 03:33:45;;;;;;;;;;;;;;;;;;5067882;28;19929;-81
2023/06/15 03:36:19;;;;;;;;;;;;;;;;;;5057012;28;20023;-81
2023/06/15 03:38:48;;;;;;;;;;;;;;;;;;5066254;28;19924;-81
2023/06/15 03:41:16;;;;;;;;;;;;;;;;;;5067235;28;20309;-80
2023/06/15 03:43:49;;;;;;;;;;;;;;;;;;5068364;28;19925;-82
2023/06/15 03:46:21;;;;;;;;;;;;;;;;;;5063023;28;20384;-80
2023/06/15 03:48:54;;;;;;;;;;;;;;;;;;5056467;28;19928;-81
2023/06/15 03:51:22;;;;;;;;;;;;;;;;;;5065271;28;20007;-81
2023/06/15 03:53:49;;;;;;;;;;;;;;;;;;5067742;28;19929;-83
2023/06/15 03:56:17;;;;;;;;;;;;;;;;;;5063262;28;19924;-81
2023/06/15 03:58:44;;;;;;;;;;;;;;;;;;5071514;28;20343;-81
2023/06/15 04:01:13;;;;;;;;;;;;;;;;;;5064705;28;20308;-82
2023/06/15 04:03:41;;;;;;;;;;;;;;;;;;5058521;28;19932;-80
2023/06/15 04:06:08;;;;;;;;;;;;;;;;;;5060129;28;19925;-81
2023/06/15 04:08:36;;;;;;;;;;;;;;;;;;5051488;28;19925;-81
2023/06/15 04:11:03;;;;;;;;;;;;;;;;;;5064487;28;19925;-81
2023/06/15 04:13:31;;;;;;;;;;;;;;;;;;5068440;28;20381;-81
2023/06/15 04:16:00;;;;;;;;;;;;;;;;;;5070196;28;20640;-81
2023/06/15 04:18:28;;;;;;;;;;;;;;;;;;5066105;28;19925;-84
2023/06/15 04:20:55;;;;;;;;;;;;;;;;;;5062406;28;20403;-80
2023/06/15 04:23:23;;;;;;;;;;;;;;;;;;5056887;28;19925;-81
2023/06/15 04:25:58;;;;;;;;;;;;;;;;;;5070918;28;19925;-81
2023/06/15 04:28:25;;;;;;;;;;;;;;;;;;5057535;28;19936;-81
2023/06/15 04:30:54;;;;;;;;;;;;;;;;;;5063799;28;19924;-81
2023/06/15 04:33:22;;;;;;;;;;;;;;;;;;5060408;28;20374;-80
2023/06/15 04:35:50;;;;;;;;;;;;;;;;;;5067413;28;20389;-81
2023/06/15 04:38:17;;;;;;;;;;;;;;;;;;5060036;28;19925;-81
2023/06/15 04:40:54;;;;;;;;;;;;;;;;;;5061678;28;20381;-81
2023/06/15 04:43:22;;;;;;;;;;;;;;;;;;5062380;28;19956;-82
2023/06/15 04:45:49;;;;;;;;;;;;;;;;;;5067202;28;19925;-81
2023/06/15 04:48:20;;;;;;;;;;;;;;;;;;5065471;28;20408;-81
2023/06/15 04:50:49;;;;;;;;;;;;;;;;;;5059542;28;19932;-82
2023/06/15 04:53:21;;;;;;;;;;;;;;;;;;5067158;28;19929;-81
2023/06/15 04:55:49;;;;;;;;;;;;;;;;;;5071662;28;19925;-82
2023/06/15 04:58:17;;;;;;;;;;;;;;;;;;5066488;28;20391;-81
2023/06/15 05:00:44;;;;;;;;;;;;;;;;;;5079140;28;19931;-80
2023/06/15 05:03:17;;;;;;;;;;;;;;;;;;5078920;28;19924;-82
2023/06/15 05:05:45;;;;;;;;;;;;;;;;;;5062327;28;20341;-83
2023/06/15 05:08:12;;;;;;;;;;;;;;;;;;5057650;28;19933;-82
2023/06/15 05:10:45;;;;;;;;;;;;;;;;;;5064683;28;19925;-81
2023/06/15 05:13:21;;;;;;;;;;;;;;;;;;5064412;28;19928;-81
2023/06/15 05:15:49;;;;;;;;;;;;;;;;;;5065509;28;19932;-81
2023/06/15 05:18:18;;;;;;;;;;;;;;;;;;5072926;28;19924;-82
2023/06/15 05:20:46;;;;;;;;;;;;;;;;;;5061172;28;19925;-81
2023/06/15 05:23:14;;;;;;;;;;;;;;;;;;5061280;28;19924;-80
2023/06/15 05:25:42;;;;;;;;;;;;;;;;;;5068040;28;19924;-82
2023/06/15 05:28:17;;;;;;;;;;;;;;;;;;5064529;28;19924;-83
2023/06/15 05:30:44;;;;;;;;;;;;;;;;;;5059824;28;19924;-84
2023/06/15 05:33:12;;;;;;;;;;;;;;;;;;5061443;28;19928;-81
2023/06/15 05:35:40;;;;;;;;;;;;;;;;;;5059630;28;19925;-81
2023/06/15 05:38:07;;;;;;;;;;;;;;;;;;5056253;28;20582;-81
2023/06/15 05:40:38;;;;;;;;;;;;;;;;;;5065698;28;19924;-82
2023/06/15 05:43:06;;;;;;;;;;;;;;;;;;5059473;28;19929;-79
2023/06/15 05:45:34;;;;;;;;;;;;;;;;;;5057177;28;21543;-86
2023/06/15 05:48:05;;;;;;;;;;;;;;;;;;5068276;28;19948;-82
2023/06/15 05:50:35;;;;;;;;;;;;;;;;;;5065316;28;20301;-83
2023/06/15 05:53:02;;;;;;;;;;;;;;;;;;5068642;28;20296;-82
2023/06/15 05:55:31;;;;;;;;;;;;;;;;;;5058837;28;21072;-79
2023/06/15 05:57:58;;;;;;;;;;;;;;;;;;5056736;28;19931;-82
2023/06/15 06:00:30;;;;;;;;;;;;;;;;;;5062866;28;19936;-81
2023/06/15 06:03:01;;;;;;;;;;;;;;;;;;5059511;28;20292;-81
2023/06/15 06:05:36;;;;;;;;;;;;;;;;;;5061591;28;19924;-83
2023/06/15 06:08:06;;;;;;;;;;;;;;;;;;5060709;28;20320;-82
2023/06/15 06:10:34;;;;;;;;;;;;;;;;;;5058722;28;19925;-80
2023/06/15 06:13:15;;;;;;;;;;;;;;;;;;5067969;28;19996;-83
2023/06/15 06:15:42;;;;;;;;;;;;;;;;;;5070040;28;19931;-85
2023/06/15 06:18:10;;;;;;;;;;;;;;;;;;5060075;28;19932;-84
2023/06/15 06:20:38;;;;;;;;;;;;;;;;;;5059873;28;19948;-84
2023/06/15 06:23:05;;;;;;;;;;;;;;;;;;5055671;28;20392;-84
2023/06/15 06:25:33;;;;;;;;;;;;;;;;;;5059910;28;19936;-84
2023/06/15 06:28:07;;;;;;;;;;;;;;;;;;5054293;28;19963;-85
2023/06/15 06:30:35;;;;;;;;;;;;;;;;;;5059295;28;19928;-84
2023/06/15 06:33:04;;;;;;;;;;;;;;;;;;5061288;28;19931;-84
2023/06/15 06:35:36;;;;;;;;;;;;;;;;;;5060061;28;19925;-86
2023/06/15 06:38:04;;;;;;;;;;;;;;;;;;5065212;28;19925;-84
2023/06/15 06:40:32;;;;;;;;;;;;;;;;;;5056770;28;19929;-85
2023/06/15 06:42:59;;;;;;;;;;;;;;;;;;5042536;28;20372;-84
2023/06/15 06:45:27;;;;;;;;;;;;;;;;;;5044936;28;19932;-84
2023/06/15 06:47:54;;;;;;;;;;;;;;;;;;5041836;28;20519;-85
2023/06/15 06:50:22;;;;;;;;;;;;;;;;;;5036494;28;19933;-84
2023/06/15 06:52:49;;;;;;;;;;;;;;;;;;5055419;28;20296;-85
2023/06/15 06:55:17;;;;;;;;;;;;;;;;;;5070952;28;19932;-85
2023/06/15 06:57:45;;;;;;;;;;;;;;;;;;5061375;28;21053;-83
2023/06/15 07:00:17;;;;;;;;;;;;;;;;;;5060196;28;19939;-86
2023/06/15 07:02:50;;;;;;;;;;;;;;;;;;5056131;28;19932;-82
2023/06/15 07:05:22;;;;;;;;;;;;;;;;;;5054511;28;19947;-82
2023/06/15 07:07:50;;;;;;;;;;;;;;;;;;5062666;28;19932;-82
2023/06/15 07:10:22;;;;;;;;;;;;;;;;;;5060862;28;19932;-88
2023/06/15 07:12:56;;;;;;;;;;;;;;;;;;5058439;28;20468;-82
2023/06/15 07:15:26;;;;;;;;;;;;;;;;;;5060202;28;19932;-83
2023/06/15 07:17:54;;;;;;;;;;;;;;;;;;5065493;28;19932;-81
2023/06/15 07:20:21;;;;;;;;;;;;;;;;;;5062542;28;19932;-81
2023/06/15 07:22:49;;;;;;;;;;;;;;;;;;5064576;28;19928;-85
2023/06/15 07:25:17;;;;;;;;;;;;;;;;;;5056065;28;20328;-84
2023/06/15 07:27:44;;;;;;;;;;;;;;;;;;5047060;28;19924;-85
2023/06/15 07:30:12;;;;;;;;;;;;;;;;;;5043650;28;19944;-82
2023/06/15 07:32:44;;;;;;;;;;;;;;;;;;5042876;28;19943;-86
2023/06/15 07:35:12;;;;;;;;;;;;;;;;;;5037295;28;19952;-83
2023/06/15 07:37:40;;;;;;;;;;;;;;;;;;5037795;28;19944;-83
2023/06/15 07:40:07;;;;;;;;;;;;;;;;;;5038863;28;20681;-83
2023/06/15 07:42:35;;;;;;;;;;;;;;;;;;5040390;28;20404;-83
2023/06/15 07:45:03;;;;;;;;;;;;;;;;;;5042085;28;20169;-84
2023/06/15 07:47:30;;;;;;;;;;;;;;;;;;5041399;28;19933;-84
2023/06/15 07:49:58;;;;;;;;;;;;;;;;;;5043650;28;20420;-83
2023/06/15 07:52:26;;;;;;;;;;;;;;;;;;5046746;28;19932;-85
2023/06/15 07:54:53;;;;;;;;;;;;;;;;;;5042582;28;20505;-85
2023/06/15 07:57:21;;;;;;;;;;;;;;;;;;5034760;28;19944;-83
2023/06/15 07:59:49;;;;;;;;;;;;;;;;;;5046611;28;19932;-84
2023/06/15 08:02:16;;;;;;;;;;;;;;;;;;5038312;28;19939;-85
2023/06/15 08:04:47;;;;;;;;;;;;;;;;;;5039023;28;19944;-87
2023/06/15 08:07:15;;;;;;;;;;;;;;;;;;5049496;28;20304;-84
2023/06/15 08:09:43;;;;;;;;;;;;;;;;;;5048611;28;19933;-84
2023/06/15 08:12:10;;;;;;;;;;;;;;;;;;5047034;28;19944;-84
2023/06/15 08:14:38;;;;;;;;;;;;;;;;;;5044120;28;19940;-87
2023/06/15 08:17:05;;;;;;;;;;;;;;;;;;5052395;28;19931;-82
2023/06/15 08:19:33;;;;;;;;;;;;;;;;;;5049672;28;19933;-83
2023/06/15 08:22:00;;;;;;;;;;;;;;;;;;5046071;28;19936;-88
2023/06/15 08:24:28;;;;;;;;;;;;;;;;;;5047701;28;19933;-83
2023/06/15 08:26:56;;;;;;;;;;;;;;;;;;5048218;28;19940;-84
2023/06/15 08:29:23;;;;;;;;;;;;;;;;;;5048999;28;19933;-83
2023/06/15 08:31:56;;;;;;;;;;;;;;;;;;5052265;28;19933;-83
2023/06/15 08:34:25;;;;;;;;;;;;;;;;;;5046953;28;19933;-89
2023/06/15 08:36:53;;;;;;;;;;;;;;;;;;5046009;28;20704;-82
2023/06/15 08:39:21;;;;;;;;;;;;;;;;;;5049170;28;19933;-87
2023/06/15 08:41:48;;;;;;;;;;;;;;;;;;5021347;28;20310;-83
2023/06/15 08:44:16;;;;;;;;;;;;;;;;;;5049005;28;20449;-83
2023/06/15 08:46:44;;;;;;;;;;;;;;;;;;5044020;28;19940;-83
2023/06/15 08:49:12;;;;;;;;;;;;;;;;;;5045633;28;19991;-86
2023/06/15 08:51:39;;;;;;;;;;;;;;;;;;5046887;28;19937;-85
2023/06/15 08:54:08;;;;;;;;;;;;;;;;;;5047095;28;19932;-87
2023/06/15 08:56:37;;;;;;;;;;;;;;;;;;5047510;28;20779;-84
2023/06/15 08:59:05;;;;;;;;;;;;;;;;;;5044397;28;22066;-84
2023/06/15 09:01:33;;;;;;;;;;;;;;;;;;5048676;28;19932;-87
2023/06/15 09:04:01;;;;;;;;;;;;;;;;;;5045422;28;19932;-86
2023/06/15 09:06:28;;;;;;;;;;;;;;;;;;5044954;28;19932;-86
2023/06/15 09:08:56;;;;;;;;;;;;;;;;;;5043803;28;19940;-84
2023/06/15 09:11:24;;;;;;;;;;;;;;;;;;5049209;28;19933;-85
2023/06/15 09:13:51;;;;;;;;;;;;;;;;;;5046989;28;19932;-84
2023/06/15 09:16:19;;;;;;;;;;;;;;;;;;5046718;28;20580;-83
2023/06/15 09:18:46;;;;;;;;;;;;;;;;;;5049449;28;19939;-83
2023/06/15 09:21:14;;;;;;;;;;;;;;;;;;5052358;28;19933;-86
2023/06/15 09:23:42;;;;;;;;;;;;;;;;;;5047796;28;19931;-83
2023/06/15 09:26:10;;;;;;;;;;;;;;;;;;5048943;28;19932;-89
2023/06/15 09:28:38;;;;;;;;;;;;;;;;;;5045504;28;19940;-84
2023/06/15 09:31:05;;;;;;;;;;;;;;;;;;5044793;28;19932;-84
2023/06/15 09:33:33;;;;;;;;;;;;;;;;;;5044701;28;20061;-84
2023/06/15 09:36:01;;;;;;;;;;;;;;;;;;5045332;28;19932;-87
2023/06/15 09:38:28;;;;;;;;;;;;;;;;;;5042996;28;19939;-82
2023/06/15 09:40:56;;;;;;;;;;;;;;;;;;5040529;28;19940;-86
2023/06/15 09:43:23;;;;;;;;;;;;;;;;;;5023657;28;19940;-87
2023/06/15 09:45:51;;;;;;;;;;;;;;;;;;5045125;28;19939;-86
2023/06/15 09:48:24;;;;;;;;;;;;;;;;;;5042633;28;19940;-83
2023/06/15 09:50:51;;;;;;;;;;;;;;;;;;5045250;28;20648;-85
2023/06/15 09:53:22;;;;;;;;;;;;;;;;;;5045477;28;19924;-87
2023/06/15 09:55:50;;;;;;;;;;;;;;;;;;5055052;28;19939;-88
2023/06/15 09:58:18;;;;;;;;;;;;;;;;;;5040951;28;19932;-83
2023/06/15 10:00:45;;;;;;;;;;;;;;;;;;5041973;28;19939;-85
2023/06/15 10:03:19;;;;;;;;;;;;;;;;;;5043567;28;19955;-80
2023/06/15 10:05:47;;;;;;;;;;;;;;;;;;5038601;28;19931;-83
2023/06/15 10:08:16;;;;;;;;;;;;;;;;;;5047616;28;19932;-88
2023/06/15 10:10:44;;;;;;;;;;;;;;;;;;5032728;28;20576;-81
2023/06/15 10:13:11;;;;;;;;;;;;;;;;;;5036868;28;19932;-82
2023/06/15 10:15:45;;;;;;;;;;;;;;;;;;5046628;28;20281;-84
2023/06/15 10:18:18;;;;;;;;;;;;;;;;;;5041505;28;19933;-83
2023/06/15 10:20:46;;;;;;;;;;;;;;;;;;5038384;28;21338;-85
2023/06/15 10:23:13;;;;;;;;;;;;;;;;;;5040258;28;19933;-84
2023/06/15 10:25:41;;;;;;;;;;;;;;;;;;5037363;28;19991;-83
2023/06/15 10:28:16;;;;;;;;;;;;;;;;;;5035862;28;19928;-82
2023/06/15 10:30:43;;;;;;;;;;;;;;;;;;5036839;28;20285;-82
2023/06/15 10:33:11;;;;;;;;;;;;;;;;;;5037987;28;20031;-82
2023/06/15 10:35:43;;;;;;;;;;;;;;;;;;5037549;28;19932;-83
2023/06/15 10:38:11;;;;;;;;;;;;;;;;;;5035930;28;19933;-83
2023/06/15 10:40:39;;;;;;;;;;;;;;;;;;5039174;28;19932;-84
2023/06/15 10:43:06;;;;;;;;;;;;;;;;;;5018341;28;19932;-82
2023/06/15 10:45:39;;;;;;;;;;;;;;;;;;5040345;28;19939;-83
2023/06/15 10:48:15;;;;;;;;;;;;;;;;;;5049174;28;19933;-87
2023/06/15 10:50:42;;;;;;;;;;;;;;;;;;5041123;28;20399;-85
2023/06/15 10:53:10;;;;;;;;;;;;;;;;;;5045457;28;19939;-82
2023/06/15 10:55:37;;;;;;;;;;;;;;;;;;5045804;28;20291;-83
2023/06/15 10:58:10;;;;;;;;;;;;;;;;;;5041811;28;19940;-82
2023/06/15 11:00:37;;;;;;;;;;;;;;;;;;5037306;28;20471;-83
2023/06/15 11:03:06;;;;;;;;;;;;;;;;;;5045250;28;19933;-81
2023/06/15 11:05:39;;;;;;;;;;;;;;;;;;5041569;28;19932;-82
2023/06/15 11:08:06;;;;;;;;;;;;;;;;;;5039944;28;19932;-81
2023/06/15 11:10:37;;;;;;;;;;;;;;;;;;5039297;28;19933;-81
2023/06/15 11:13:05;;;;;;;;;;;;;;;;;;5039750;28;19962;-81
2023/06/15 11:15:33;;;;;;;;;;;;;;;;;;5041559;28;19951;-83
2023/06/15 11:18:06;;;;;;;;;;;;;;;;;;5043882;28;19932;-82
2023/06/15 11:20:39;;;;;;;;;;;;;;;;;;5047645;28;19954;-82
2023/06/15 11:23:09;;;;;;;;;;;;;;;;;;5041460;28;19947;-83
2023/06/15 11:25:37;;;;;;;;;;;;;;;;;;5044849;28;19932;-82
2023/06/15 11:28:06;;;;;;;;;;;;;;;;;;5045622;28;19933;-82
2023/06/15 11:30:39;;;;;;;;;;;;;;;;;;5045993;28;19932;-86
2023/06/15 11:33:07;;;;;;;;;;;;;;;;;;5046756;28;19939;-81
2023/06/15 11:35:34;;;;;;;;;;;;;;;;;;5041320;28;20682;-83
2023/06/15 11:38:07;;;;;;;;;;;;;;;;;;5039603;28;19943;-81
2023/06/15 11:40:35;;;;;;;;;;;;;;;;;;5035866;28;19936;-82
2023/06/15 11:43:04;;;;;;;;;;;;;;;;;;5014426;28;20709;-84
2023/06/15 11:45:36;;;;;;;;;;;;;;;;;;5044629;28;19932;-82
2023/06/15 11:48:04;;;;;;;;;;;;;;;;;;5035654;28;20485;-84
2023/06/15 11:50:37;;;;;;;;;;;;;;;;;;5037170;28;19932;-82
2023/06/15 11:53:05;;;;;;;;;;;;;;;;;;5058751;28;19932;-85
2023/06/15 11:55:37;;;;;;;;;;;;;;;;;;5043470;28;19940;-80
2023/06/15 11:58:07;;;;;;;;;;;;;;;;;;5041968;28;19933;-83
2023/06/15 12:00:35;;;;;;;;;;;;;;;;;;5043093;28;19940;-83
2023/06/15 12:03:02;;;;;;;;;;;;;;;;;;5038129;28;19939;-81
2023/06/15 12:05:30;;;;;;;;;;;;;;;;;;5036725;28;19935;-82
2023/06/15 12:07:57;;;;;;;;;;;;;;;;;;5033760;28;19928;-82
2023/06/15 12:10:30;;;;;;;;;;;;;;;;;;5033498;28;20189;-84
2023/06/15 12:12:58;;;;;;;;;;;;;;;;;;5038772;28;19933;-82
2023/06/15 12:15:25;;;;;;;;;;;;;;;;;;5039506;28;20830;-81
2023/06/15 12:17:59;;;;;;;;;;;;;;;;;;5039162;28;19939;-82
2023/06/15 12:20:26;;;;;;;;;;;;;;;;;;5056508;28;20278;-84
2023/06/15 12:22:54;;;;;;;;;;;;;;;;;;5041681;28;20858;-81
2023/06/15 12:25:21;;;;;;;;;;;;;;;;;;5039493;28;19940;-84
2023/06/15 12:27:51;;;;;;;;;;;;;;;;;;5039096;28;19939;-82
2023/06/15 12:30:24;;;;;;;;;;;;;;;;;;5037087;28;20068;-83
2023/06/15 12:32:51;;;;;;;;;;;;;;;;;;5041700;28;19947;-83
2023/06/15 12:35:19;;;;;;;;;;;;;;;;;;5037268;28;20326;-87
2023/06/15 12:37:48;;;;;;;;;;;;;;;;;;5038616;28;20540;-83
2023/06/15 12:40:16;;;;;;;;;;;;;;;;;;5042766;28;19932;-83
2023/06/15 12:42:48;;;;;;;;;;;;;;;;;;5010098;28;19944;-81
2023/06/15 12:45:16;;;;;;;;;;;;;;;;;;5035804;28;19958;-81
2023/06/15 12:47:48;;;;;;;;;;;;;;;;;;5034530;28;19944;-85
2023/06/15 12:50:16;;;;;;;;;;;;;;;;;;5038135;28;19932;-83
2023/06/15 12:52:48;;;;;;;;;;;;;;;;;;5036000;28;19944;-80
2023/06/15 12:55:21;;;;;;;;;;;;;;;;;;5038922;28;19932;-85
2023/06/15 12:57:54;;;;;;;;;;;;;;;;;;5038778;28;20649;-83
2023/06/15 13:00:26;;;;;;;;;;;;;;;;;;5037045;28;19932;-84
2023/06/15 13:02:54;;;;;;;;;;;;;;;;;;5041787;28;19956;-83
2023/06/15 13:05:21;;;;;;;;;;;;;;;;;;5043926;28;20454;-82
2023/06/15 13:07:54;;;;;;;;;;;;;;;;;;5044837;28;19932;-86
2023/06/15 13:10:22;;;;;;;;;;;;;;;;;;5043424;28;19932;-84
2023/06/15 13:12:52;;;;;;;;;;;;;;;;;;5043598;28;19939;-80
2023/06/15 13:15:19;;;;;;;;;;;;;;;;;;5047542;28;20419;-83
2023/06/15 13:17:47;;;;;;;;;;;;;;;;;;5045681;28;19957;-82
2023/06/15 13:20:14;;;;;;;;;;;;;;;;;;5039390;28;19959;-85
2023/06/15 13:22:42;;;;;;;;;;;;;;;;;;5041949;28;19932;-82
2023/06/15 13:25:14;;;;;;;;;;;;;;;;;;5043065;28;19939;-85
2023/06/15 13:27:42;;;;;;;;;;;;;;;;;;5041236;28;19932;-83
2023/06/15 13:30:10;;;;;;;;;;;;;;;;;;5038972;28;19932;-80
2023/06/15 13:32:39;;;;;;;;;;;;;;;;;;5038279;28;19940;-85
2023/06/15 13:35:06;;;;;;;;;;;;;;;;;;5042853;28;20415;-82
2023/06/15 13:37:34;;;;;;;;;;;;;;;;;;5045055;28;19939;-81
2023/06/15 13:40:06;;;;;;;;;;;;;;;;;;5043552;28;19940;-81
2023/06/15 13:42:34;;;;;;;;;;;;;;;;;;5011598;28;19963;-86
2023/06/15 13:45:02;;;;;;;;;;;;;;;;;;5038065;28;19933;-82
2023/06/15 13:47:30;;;;;;;;;;;;;;;;;;5045352;28;19940;-81
2023/06/15 13:49:57;;;;;;;;;;;;;;;;;;5042168;28;19937;-82
2023/06/15 13:52:30;;;;;;;;;;;;;;;;;;5048239;28;19932;-81
2023/06/15 13:54:57;;;;;;;;;;;;;;;;;;5037649;28;19932;-82
2023/06/15 13:57:25;;;;;;;;;;;;;;;;;;5035725;28;20420;-82
2023/06/15 13:59:52;;;;;;;;;;;;;;;;;;5038562;28;19943;-83
2023/06/15 14:02:20;;;;;;;;;;;;;;;;;;5041000;28;19933;-84
2023/06/15 14:04:48;;;;;;;;;;;;;;;;;;5042113;28;19933;-81
2023/06/15 14:07:20;;;;;;;;;;;;;;;;;;5041904;28;20411;-84
2023/06/15 14:09:53;;;;;;;;;;;;;;;;;;5045579;28;19947;-84
2023/06/15 14:12:25;;;;;;;;;;;;;;;;;;5046751;28;19939;-83
2023/06/15 14:14:53;;;;;;;;;;;;;;;;;;5040706;28;19932;-82
2023/06/15 14:17:26;;;;;;;;;;;;;;;;;;5049466;28;19935;-83
2023/06/15 14:19:56;;;;;;;;;;;;;;;;;;5043290;28;19941;-80
2023/06/15 14:22:25;;;;;;;;;;;;;;;;;;5043332;28;19939;-82
2023/06/15 14:24:52;;;;;;;;;;;;;;;;;;5035577;28;20324;-81
2023/06/15 14:27:25;;;;;;;;;;;;;;;;;;5039272;28;20226;-81
2023/06/15 14:29:58;;;;;;;;;;;;;;;;;;5035723;28;20277;-82
2023/06/15 14:32:25;;;;;;;;;;;;;;;;;;5041113;28;19943;-83
2023/06/15 14:34:53;;;;;;;;;;;;;;;;;;5046992;28;19932;-82
2023/06/15 14:37:20;;;;;;;;;;;;;;;;;;5062958;28;20334;-81
2023/06/15 14:39:48;;;;;;;;;;;;;;;;;;5047276;28;19932;-82
2023/06/15 14:42:16;;;;;;;;;;;;;;;;;;5022144;28;21543;-81
2023/06/15 14:44:43;;;;;;;;;;;;;;;;;;5037507;28;19940;-83
2023/06/15 14:47:13;;;;;;;;;;;;;;;;;;5040977;28;19939;-82
2023/06/15 14:49:41;;;;;;;;;;;;;;;;;;5039240;28;20166;-79
2023/06/15 14:52:13;;;;;;;;;;;;;;;;;;5041339;28;19944;-81
2023/06/15 14:54:46;;;;;;;;;;;;;;;;;;5039197;28;19952;-81
2023/06/15 14:57:13;;;;;;;;;;;;;;;;;;5037408;28;19943;-81
2023/06/15 14:59:41;;;;;;;;;;;;;;;;;;5039533;28;19933;-83
2023/06/15 15:02:08;;;;;;;;;;;;;;;;;;5061141;28;19938;-85
2023/06/15 15:04:36;;;;;;;;;;;;;;;;;;5064894;28;19932;-80
2023/06/15 15:07:09;;;;;;;;;;;;;;;;;;5068463;28;19932;-80
2023/06/15 15:09:41;;;;;;;;;;;;;;;;;;5070736;28;19939;-80
2023/06/15 15:12:14;;;;;;;;;;;;;;;;;;5049075;28;20465;-83
2023/06/15 15:14:49;;;;;;;;;;;;;;;;;;5048700;28;19948;-81
2023/06/15 15:17:17;;;;;;;;;;;;;;;;;;5036895;28;19932;-82
2023/06/15 15:19:44;;;;;;;;;;;;;;;;;;5042051;28;19932;-82
2023/06/15 15:22:12;;;;;;;;;;;;;;;;;;5048617;28;19932;-83
2023/06/15 15:24:39;;;;;;;;;;;;;;;;;;5039801;28;19940;-85
2023/06/15 15:27:07;;;;;;;;;;;;;;;;;;5046580;28;19924;-81
2023/06/15 15:29:34;;;;;;;;;;;;;;;;;;5051826;28;20126;-82
2023/06/15 15:32:02;;;;;;;;;;;;;;;;;;5039655;28;19937;-81
2023/06/15 15:34:30;;;;;;;;;;;;;;;;;;5031041;28;19933;-83
2023/06/15 15:37:02;;;;;;;;;;;;;;;;;;5042701;28;20671;-82
2023/06/15 15:39:30;;;;;;;;;;;;;;;;;;5045669;28;19940;-80
2023/06/15 15:42:05;;;;;;;;;;;;;;;;;;5018805;28;20328;-81
2023/06/15 15:44:33;;;;;;;;;;;;;;;;;;5028532;28;19932;-81
2023/06/15 15:47:00;;;;;;;;;;;;;;;;;;5035793;28;20393;-81
2023/06/15 15:49:33;;;;;;;;;;;;;;;;;;5044475;28;19932;-81
2023/06/15 15:52:00;;;;;;;;;;;;;;;;;;5037869;28;19933;-83
2023/06/15 15:54:28;;;;;;;;;;;;;;;;;;5039251;28;19999;-80
2023/06/15 16:05:05;;;;;;;;;;;;;;;;;;4999370;28;19944;-84
2023/06/15 16:07:34;;;;;;;;;;;;;;;;;;5004544;28;19940;-83
2023/06/15 16:10:02;;;;;;;;;;;;;;;;;;5011703;28;19936;-87
2023/06/15 16:12:30;;;;;;;;;;;;;;;;;;4999368;28;19933;-85
2023/06/15 16:14:57;;;;;;;;;;;;;;;;;;4997228;28;19937;-85
2023/06/15 16:17:25;;;;;;;;;;;;;;;;;;5005820;28;19940;-85
2023/06/15 16:19:52;;;;;;;;;;;;;;;;;;5015823;28;19947;-82
2023/06/15 16:22:20;;;;;;;;;;;;;;;;;;5014246;28;19937;-84
2023/06/15 16:24:52;;;;;;;;;;;;;;;;;;4998391;28;19933;-85
2023/06/15 16:27:20;;;;;;;;;;;;;;;;;;5005823;28;19933;-83
2023/06/15 16:29:47;;;;;;;;;;;;;;;;;;5010852;28;19940;-85
2023/06/15 16:32:15;;;;;;;;;;;;;;;;;;4996873;28;19933;-84
2023/06/15 16:34:43;;;;;;;;;;;;;;;;;;5006062;28;19933;-84
2023/06/15 16:37:10;;;;;;;;;;;;;;;;;;5003659;28;19944;-85
2023/06/15 16:39:43;;;;;;;;;;;;;;;;;;4996267;28;19936;-83
2023/06/15 16:42:10;;;;;;;;;;;;;;;;;;5001025;28;19973;-82
2023/06/15 16:44:43;;;;;;;;;;;;;;;;;;5001813;28;19933;-80
2023/06/15 16:47:10;;;;;;;;;;;;;;;;;;5010631;28;19980;-81
2023/06/15 16:49:38;;;;;;;;;;;;;;;;;;4993076;28;19940;-81
2023/06/15 16:52:11;;;;;;;;;;;;;;;;;;5007227;28;19940;-83
2023/06/15 16:54:38;;;;;;;;;;;;;;;;;;4997780;28;19941;-81
2023/06/15 16:57:07;;;;;;;;;;;;;;;;;;5005429;28;19934;-81
2023/06/15 16:59:34;;;;;;;;;;;;;;;;;;5005117;28;19940;-81
2023/06/15 17:02:02;;;;;;;;;;;;;;;;;;5003312;28;19933;-81
2023/06/15 17:04:30;;;;;;;;;;;;;;;;;;4982372;28;19933;-83
2023/06/15 17:06:57;;;;;;;;;;;;;;;;;;4996383;28;19933;-81